| time (UTC) | temp F | wind direction | speed MPH | gust MPH | rain 1hr in | rain 24hr in | rain mn in | humidity % | barometer mb |
| 20260506223056 | 87 | 100 | 3.0 | 12.0 | 0.00 | 0.00 | 0.00 | 17 | 1010.2 |
| 20260506221558 | 85 | 58 | 6.0 | 12.0 | 0.00 | 0.00 | 0.00 | 18 | 1010.4 |
| 20260506220053 | 86 | 56 | 7.0 | 16.0 | 0.00 | 0.00 | 0.00 | 17 | 1010.6 |
| 20260506214552 | 85 | 95 | 4.0 | 16.0 | 0.00 | 0.00 | 0.00 | 18 | 1010.8 |
| 20260506213048 | 85 | 102 | 8.0 | 15.0 | 0.00 | 0.00 | 0.00 | 18 | 1011.0 |
| 20260506211551 | 85 | 83 | 9.0 | 19.0 | 0.00 | 0.00 | 0.00 | 18 | 1011.1 |
| 20260506210045 | 84 | 65 | 12.0 | 18.0 | 0.00 | 0.00 | 0.00 | 19 | 1011.3 |
| 20260506204544 | 85 | 90 | 8.0 | 19.0 | 0.00 | 0.00 | 0.00 | 19 | 1011.4 |
| 20260506203042 | 84 | 57 | 7.0 | 14.0 | 0.00 | 0.00 | 0.00 | 20 | 1011.5 |
| 20260506201540 | 83 | 83 | 8.0 | 15.0 | 0.00 | 0.00 | 0.00 | 21 | 1011.6 |
| 20260506200043 | 83 | 35 | 8.0 | 14.0 | 0.00 | 0.00 | 0.00 | 22 | 1011.9 |
| 20260506194539 | 81 | 61 | 3.0 | 11.0 | 0.00 | 0.00 | 0.00 | 24 | 1012.1 |
| 20260506193033 | 82 | 98 | 6.0 | 12.0 | 0.00 | 0.00 | 0.00 | 23 | 1012.4 |
| 20260506191530 | 79 | 184 | 1.0 | 10.0 | 0.00 | 0.00 | 0.00 | 25 | 1012.8 |
| 20260506190027 | 80 | 306 | 2.0 | 6.0 | 0.00 | 0.00 | 0.00 | 25 | 1013.0 |
| 20260506184523 | 78 | 86 | 5.0 | 10.0 | 0.00 | 0.00 | 0.00 | 26 | 1013.1 |
| 20260506183021 | 79 | 270 | 2.0 | 6.0 | 0.00 | 0.00 | 0.00 | 26 | 1013.3 |
| 20260506181519 | 75 | 103 | 2.0 | 7.0 | 0.00 | 0.00 | 0.00 | 29 | 1013.5 |
| 20260506180018 | 73 | 72 | 1.0 | 4.0 | 0.00 | 0.00 | 0.00 | 31 | 1013.7 |
| 20260506174510 | 72 | 14 | 3.0 | 8.0 | 0.00 | 0.00 | 0.00 | 32 | 1013.8 |
| 20260506173006 | 72 | 105 | 2.0 | 8.0 | 0.00 | 0.00 | 0.00 | 32 | 1013.8 |
| 20260506171502 | 71 | 73 | 2.0 | 5.0 | 0.00 | 0.00 | 0.00 | 33 | 1013.7 |
| 20260506170108 | 72 | 277 | 2.0 | 6.0 | 0.00 | 0.00 | 0.00 | 32 | 1013.8 |
| 20260506164612 | 70 | 334 | 1.0 | 4.0 | 0.00 | 0.00 | 0.00 | 35 | 1014.0 |
| 20260506163055 | 70 | 292 | 1.0 | 4.0 | 0.00 | 0.00 | 0.00 | 36 | 1014.0 |
| 20260506161545 | 69 | 294 | 2.0 | 4.0 | 0.00 | 0.00 | 0.00 | 37 | 1014.0 |
| 20260506160047 | 68 | 265 | 3.0 | 7.0 | 0.00 | 0.00 | 0.00 | 37 | 1014.0 |
| 20260506154547 | 66 | 221 | 3.0 | 6.0 | 0.00 | 0.00 | 0.00 | 41 | 1014.0 |
| 20260506153035 | 64 | 227 | 1.0 | 4.0 | 0.00 | 0.00 | 0.00 | 43 | 1013.8 |
| 20260506151533 | 63 | 286 | 1.0 | 4.0 | 0.00 | 0.00 | 0.00 | 44 | 1014.0 |
| 20260506150027 | 61 | 282 | 2.0 | 4.0 | 0.00 | 0.00 | 0.00 | 47 | 1013.9 |
| 20260506144527 | 60 | 360 | 0.0 | 3.0 | 0.00 | 0.00 | 0.00 | 50 | 1013.9 |
| 20260506143022 | 57 | 26 | 2.0 | 4.0 | 0.00 | 0.00 | 0.00 | 53 | 1013.8 |
| 20260506141515 | 56 | 29 | 2.0 | 4.0 | 0.00 | 0.00 | 0.00 | 55 | 1013.6 |
| 20260506140011 | 56 | 360 | 0.0 | 1.0 | 0.00 | 0.00 | 0.00 | 55 | 1013.4 |
| 20260506134506 | 54 | 302 | 0.0 | 1.0 | 0.00 | 0.00 | 0.00 | 59 | 1013.3 |
| 20260506133001 | 53 | 279 | 0.0 | 0.0 | 0.00 | 0.00 | 0.00 | 60 | 1013.0 |
| 20260506131558 | 51 | 279 | 0.0 | 2.0 | 0.00 | 0.00 | 0.00 | 64 | 1012.9 |
| 20260506130055 | 51 | 279 | 0.0 | 2.0 | 0.00 | 0.00 | 0.00 | 63 | 1012.6 |
| 20260506124551 | 51 | 279 | 0.0 | 1.0 | 0.00 | 0.00 | 0.00 | 63 | 1012.5 |
| 20260506123048 | 52 | 277 | 1.0 | 3.0 | 0.00 | 0.00 | 0.00 | 61 | 1012.2 |
| 20260506121555 | 53 | 301 | 0.0 | 3.0 | 0.00 | 0.00 | 0.00 | 60 | 1012.2 |
| 20260506120107 | 54 | 223 | 2.0 | 8.0 | 0.00 | 0.00 | 0.00 | 58 | 1012.1 |
| 20260506114544 | 55 | 360 | 3.0 | 8.0 | 0.00 | 0.00 | 0.00 | 58 | 1012.0 |
| 20260506113038 | 55 | 360 | 3.0 | 7.0 | 0.00 | 0.00 | 0.00 | 56 | 1011.9 |
| 20260506111539 | 55 | 225 | 3.0 | 8.0 | 0.00 | 0.00 | 0.00 | 55 | 1011.8 |
| 20260506110035 | 55 | 221 | 5.0 | 9.0 | 0.00 | 0.00 | 0.00 | 56 | 1011.7 |
| 20260506104534 | 55 | 190 | 0.0 | 8.0 | 0.00 | 0.00 | 0.00 | 56 | 1011.7 |
| 20260506103035 | 55 | 198 | 1.0 | 5.0 | 0.00 | 0.00 | 0.00 | 56 | 1011.6 |
| 20260506101530 | 55 | 199 | 2.0 | 6.0 | 0.00 | 0.00 | 0.00 | 57 | 1011.4 |
| 20260506100033 | 55 | 234 | 3.0 | 6.0 | 0.00 | 0.00 | 0.00 | 56 | 1011.4 |
| 20260506094533 | 56 | 360 | 3.0 | 6.0 | 0.00 | 0.00 | 0.00 | 55 | 1011.2 |
| 20260506093041 | 56 | 360 | 4.0 | 7.0 | 0.00 | 0.00 | 0.00 | 55 | 1011.2 |
| 20260506091525 | 56 | 217 | 4.0 | 11.0 | 0.00 | 0.00 | 0.00 | 55 | 1011.1 |
| 20260506090023 | 56 | 191 | 4.0 | 10.0 | 0.00 | 0.00 | 0.00 | 55 | 1011.1 |
| 20260506084521 | 56 | 202 | 6.0 | 10.0 | 0.00 | 0.00 | 0.00 | 54 | 1011.1 |
| 20260506083019 | 57 | 232 | 4.0 | 9.0 | 0.00 | 0.00 | 0.00 | 53 | 1011.1 |
| 20260506081516 | 57 | 360 | 3.0 | 9.0 | 0.00 | 0.00 | 0.00 | 52 | 1011.2 |
| 20260506073009 | 59 | 196 | 6.0 | 12.0 | 0.00 | 0.00 | 0.00 | 49 | 1010.9 |
| 20260506071508 | 59 | 360 | 8.0 | 12.0 | 0.00 | 0.00 | 0.00 | 48 | 1010.8 |
| 20260506061603 | 59 | 212 | 7.0 | 12.0 | 0.00 | 0.00 | 0.00 | 48 | 1010.1 |
| 20260506050113 | 60 | 189 | 7.0 | 14.0 | 0.00 | 0.00 | 0.00 | 47 | 1009.3 |
| 20260506044559 | 60 | 190 | 7.0 | 14.0 | 0.00 | 0.00 | 0.00 | 47 | 1009.2 |
| 20260506043051 | 61 | 212 | 7.0 | 12.0 | 0.00 | 0.00 | 0.00 | 46 | 1009.1 |
| 20260506041553 | 61 | 208 | 6.0 | 12.0 | 0.00 | 0.00 | 0.00 | 46 | 1008.8 |
| 20260506040047 | 62 | 189 | 5.0 | 14.0 | 0.00 | 0.00 | 0.00 | 45 | 1008.7 |
| 20260506034545 | 63 | 227 | 6.0 | 16.0 | 0.00 | 0.00 | 0.00 | 43 | 1008.3 |
| 20260506033043 | 63 | 196 | 6.0 | 15.0 | 0.00 | 0.00 | 0.00 | 42 | 1007.9 |
| 20260506031555 | 64 | 205 | 7.0 | 15.0 | 0.00 | 0.00 | 0.00 | 41 | 1007.7 |
| 20260506030057 | 65 | 201 | 7.0 | 17.0 | 0.00 | 0.00 | 0.00 | 39 | 1007.1 |
| 20260506024541 | 67 | 360 | 8.0 | 17.0 | 0.00 | 0.00 | 0.00 | 38 | 1006.8 |
| 20260506023041 | 68 | 360 | 4.0 | 10.0 | 0.00 | 0.00 | 0.00 | 34 | 1006.6 |
| 20260506021540 | 69 | 202 | 6.0 | 15.0 | 0.00 | 0.00 | 0.00 | 33 | 1006.4 |
| 20260506020039 | 70 | 175 | 5.0 | 10.0 | 0.00 | 0.00 | 0.00 | 34 | 1006.3 |
| 20260506014539 | 70 | 192 | 5.0 | 10.0 | 0.00 | 0.00 | 0.00 | 34 | 1006.2 |
| 20260506013044 | 71 | 232 | 7.0 | 12.0 | 0.00 | 0.00 | 0.00 | 32 | 1006.0 |
| 20260506011538 | 72 | 136 | 5.0 | 12.0 | 0.00 | 0.00 | 0.00 | 30 | 1006.0 |
| 20260506010037 | 73 | 269 | 2.0 | 6.0 | 0.00 | 0.00 | 0.00 | 29 | 1006.0 |
| 20260506004604 | 73 | 292 | 3.0 | 7.0 | 0.00 | 0.00 | 0.00 | 28 | 1005.8 |
| 20260506003036 | 74 | 211 | 3.0 | 6.0 | 0.00 | 0.00 | 0.00 | 28 | 1005.7 |
| 20260506001535 | 74 | 133 | 4.0 | 8.0 | 0.00 | 0.00 | 0.00 | 27 | 1005.6 |
| 20260506000034 | 75 | 308 | 1.0 | 7.0 | 0.00 | 0.00 | 0.00 | 27 | 1005.7 |
| 20260505234603 | 75 | 287 | 5.0 | 8.0 | 0.00 | 0.00 | 0.00 | 27 | 1005.7 |
| 20260505233033 | 75 | 327 | 3.0 | 8.0 | 0.00 | 0.00 | 0.00 | 28 | 1005.6 |
| 20260505231535 | 75 | 348 | 4.0 | 13.0 | 0.00 | 0.00 | 0.00 | 28 | 1005.6 |
| 20260505230030 | 75 | 272 | 2.0 | 4.0 | 0.00 | 0.00 | 0.00 | 26 | 1005.8 |
| 20260505224532 | 74 | 126 | 4.0 | 8.0 | 0.00 | 0.00 | 0.00 | 26 | 1006.0 |